Time,TemperatureF,DewpointF,PressureIn,WindDirection,WindDirectionDegrees,WindSpeedMPH,WindSpeedGustMPH,Humidity,HourlyPrecipIn,Conditions,Clouds,dailyrainin,SolarRadiationWatts/m^2,SoftwareType,DateUTC
2013-01-02 00:01:00,22.8,14.1,30.10,WNW,291,2.0,2.0,69,0.00,,,0.00,0,Wunderground v.1.15,2013-01-02 05:01:00,
2013-01-02 00:05:00,22.9,14.2,30.11,WNW,286,2.0,2.0,69,0.00,,,0.00,0,Wunderground v.1.15,2013-01-02 05:05:00,
2013-01-02 00:11:00,22.9,14.2,30.11,West,268,2.0,3.0,69,0.00,,,0.00,0,Wunderground v.1.15,2013-01-02 05:11:00,
2013-01-02 00:17:00,22.8,14.5,30.11,North,350,2.0,6.0,70,0.00,,,0.00,0,Wunderground v.1.15,2013-01-02 05:17:00,
2013-01-02 00:23:00,22.8,14.1,30.11,NW,319,2.0,3.0,69,0.00,,,0.00,0,Wunderground v.1.15,2013-01-02 05:23:00,
2013-01-02 00:27:00,22.7,14.4,30.11,WSW,255,3.0,3.0,70,0.00,,,0.00,0,Wunderground v.1.15,2013-01-02 05:27:00,
2013-01-02 00:33:00,22.7,14.4,30.11,WNW,296,2.0,5.0,70,0.00,,,0.00,0,Wunderground v.1.15,2013-01-02 05:33:00,
2013-01-02 00:39:00,22.6,14.3,30.11,WNW,287,2.0,5.0,70,0.00,,,0.00,0,Wunderground v.1.15,2013-01-02 05:39:00,
2013-01-02 00:45:00,22.5,13.9,30.11,West,270,3.0,5.0,69,0.00,,,0.00,0,Wunderground v.1.15,2013-01-02 05:45:00,
2013-01-02 00:51:00,22.5,13.9,30.11,WSW,244,2.0,5.0,69,0.00,,,0.00,0,Wunderground v.1.15,2013-01-02 05:51:00,
2013-01-02 00:57:00,22.4,13.8,30.11,West,279,2.0,5.0,69,0.00,,,0.00,0,Wunderground v.1.15,2013-01-02 05:57:00,
2013-01-02 01:03:00,22.3,14.0,30.11,West,272,1.0,5.0,70,0.00,,,0.00,0,Wunderground v.1.15,2013-01-02 06:03:00,
2013-01-02 01:09:00,22.3,14.0,30.11,WNW,299,1.0,5.0,70,0.00,,,0.00,0,Wunderground v.1.15,2013-01-02 06:09:00,
2013-01-02 01:15:00,22.3,14.0,30.11,West,263,2.0,5.0,70,0.00,,,0.00,0,Wunderground v.1.15,2013-01-02 06:15:00,
2013-01-02 01:21:00,22.2,13.9,30.11,WNW,301,1.0,5.0,70,0.00,,,0.00,0,Wunderground v.1.15,2013-01-02 06:21:00,
2013-01-02 01:27:00,22.1,13.8,30.11,WSW,238,1.0,5.0,70,0.00,,,0.00,0,Wunderground v.1.15,2013-01-02 06:27:00,
2013-01-02 01:33:00,22.0,14.0,30.10,WSW,248,1.0,5.0,71,0.00,,,0.00,0,Wunderground v.1.15,2013-01-02 06:33:00,
2013-01-02 01:39:00,21.9,13.9,30.10,West,261,1.0,5.0,71,0.00,,,0.00,0,Wunderground v.1.15,2013-01-02 06:39:00,
2013-01-02 01:45:00,21.7,13.7,30.10,West,259,1.0,5.0,71,0.00,,,0.00,0,Wunderground v.1.15,2013-01-02 06:45:00,
2013-01-02 01:51:00,21.6,13.6,30.10,WSW,240,2.0,2.0,71,0.00,,,0.00,0,Wunderground v.1.15,2013-01-02 06:51:00,
2013-01-02 01:57:00,21.5,13.9,30.11,WSW,249,1.0,5.0,72,0.00,,,0.00,0,Wunderground v.1.15,2013-01-02 06:57:00,
2013-01-02 02:03:00,21.3,13.7,30.10,West,265,1.0,5.0,72,0.00,,,0.00,0,Wunderground v.1.15,2013-01-02 07:03:00,
2013-01-02 02:09:00,21.2,13.9,30.11,West,260,0.0,5.0,73,0.00,,,0.00,0,Wunderground v.1.15,2013-01-02 07:09:00,
2013-01-02 02:15:00,21.2,13.9,30.11,WSW,238,1.0,5.0,73,0.00,,,0.00,0,Wunderground v.1.15,2013-01-02 07:15:00,
2013-01-02 02:21:00,21.1,13.8,30.12,WSW,245,1.0,1.0,73,0.00,,,0.00,0,Wunderground v.1.15,2013-01-02 07:21:00,
2013-01-02 02:27:00,21.1,13.8,30.12,West,273,1.0,5.0,73,0.00,,,0.00,0,Wunderground v.1.15,2013-01-02 07:27:00,
2013-01-02 02:33:00,21.0,13.7,30.11,WNW,282,1.0,5.0,73,0.00,,,0.00,0,Wunderground v.1.15,2013-01-02 07:33:00,
2013-01-02 02:39:00,20.9,13.6,30.11,West,263,1.0,5.0,73,0.00,,,0.00,0,Wunderground v.1.15,2013-01-02 07:39:00,
2013-01-02 02:45:00,20.8,13.5,30.11,NW,304,2.0,5.0,73,0.00,,,0.00,0,Wunderground v.1.15,2013-01-02 07:45:00,
2013-01-02 02:51:00,20.5,13.2,30.11,WSW,257,1.0,5.0,73,0.00,,,0.00,0,Wunderground v.1.15,2013-01-02 07:51:00,
2013-01-02 02:57:00,20.2,13.5,30.11,SW,226,1.0,5.0,75,0.00,,,0.00,0,Wunderground v.1.15,2013-01-02 07:57:00,
2013-01-02 03:03:00,19.9,13.3,30.11,WSW,252,0.0,5.0,75,0.00,,,0.00,0,Wunderground v.1.15,2013-01-02 08:03:00,
2013-01-02 03:09:00,19.6,13.3,30.11,WSW,247,1.0,5.0,76,0.00,,,0.00,0,Wunderground v.1.15,2013-01-02 08:09:00,
2013-01-02 03:15:00,19.4,13.1,30.11,West,275,1.0,5.0,76,0.00,,,0.00,0,Wunderground v.1.15,2013-01-02 08:15:00,
2013-01-02 03:21:00,19.1,13.1,30.11,West,275,0.0,5.0,77,0.00,,,0.00,0,Wunderground v.1.15,2013-01-02 08:21:00,
2013-01-02 03:27:00,18.9,12.9,30.12,West,275,0.0,5.0,77,0.00,,,0.00,0,Wunderground v.1.15,2013-01-02 08:27:00,
2013-01-02 03:33:00,18.8,13.1,30.12,NW,317,0.0,5.0,78,0.00,,,0.00,0,Wunderground v.1.15,2013-01-02 08:33:00,
2013-01-02 03:39:00,18.6,12.9,30.12,NW,317,0.0,5.0,78,0.00,,,0.00,0,Wunderground v.1.15,2013-01-02 08:39:00,
2013-01-02 03:45:00,17.8,12.7,30.12,NW,317,0.0,5.0,80,0.00,,,0.00,0,Wunderground v.1.15,2013-01-02 08:45:00,
2013-01-02 03:51:00,17.7,12.6,30.13,NW,317,0.0,5.0,80,0.00,,,0.00,0,Wunderground v.1.15,2013-01-02 08:51:00,
2013-01-02 03:57:00,17.6,12.5,30.13,NW,317,0.0,5.0,80,0.00,,,0.00,0,Wunderground v.1.15,2013-01-02 08:57:00,
2013-01-02 04:03:00,17.4,12.6,30.13,NW,317,0.0,5.0,81,0.00,,,0.00,0,Wunderground v.1.15,2013-01-02 09:03:00,
2013-01-02 04:09:00,17.0,12.2,30.13,NW,317,0.0,5.0,81,0.00,,,0.00,0,Wunderground v.1.15,2013-01-02 09:09:00,
2013-01-02 04:15:00,17.0,12.2,30.12,West,273,0.0,5.0,81,0.00,,,0.00,0,Wunderground v.1.15,2013-01-02 09:15:00,
2013-01-02 04:21:00,16.7,12.2,30.12,West,273,0.0,5.0,82,0.00,,,0.00,0,Wunderground v.1.15,2013-01-02 09:21:00,
2013-01-02 04:27:00,16.5,12.0,30.12,West,273,0.0,5.0,82,0.00,,,0.00,0,Wunderground v.1.15,2013-01-02 09:27:00,
2013-01-02 04:33:00,16.2,11.7,30.13,West,273,0.0,5.0,82,0.00,,,0.00,0,Wunderground v.1.15,2013-01-02 09:33:00,
2013-01-02 04:39:00,16.1,11.8,30.12,West,273,0.0,5.0,83,0.00,,,0.00,0,Wunderground v.1.15,2013-01-02 09:39:00,
2013-01-02 04:45:00,15.9,11.4,30.12,WNW,294,0.0,5.0,82,0.00,,,0.00,0,Wunderground v.1.15,2013-01-02 09:45:00,
2013-01-02 04:51:00,16.0,11.7,30.12,WSW,257,0.0,5.0,83,0.00,,,0.00,0,Wunderground v.1.15,2013-01-02 09:51:00,
2013-01-02 04:57:00,15.9,11.7,30.13,WSW,257,0.0,5.0,83,0.00,,,0.00,0,Wunderground v.1.15,2013-01-02 09:57:00,
2013-01-02 05:03:00,16.0,11.7,30.13,West,273,0.0,5.0,83,0.00,,,0.00,0,Wunderground v.1.15,2013-01-02 10:03:00,
2013-01-02 05:09:00,15.8,11.6,30.12,West,273,0.0,5.0,83,0.00,,,0.00,0,Wunderground v.1.15,2013-01-02 10:09:00,
2013-01-02 05:15:00,15.3,11.3,30.13,West,273,0.0,5.0,84,0.00,,,0.00,0,Wunderground v.1.15,2013-01-02 10:15:00,
2013-01-02 05:21:00,14.7,11.0,30.13,West,273,0.0,5.0,85,0.00,,,0.00,0,Wunderground v.1.15,2013-01-02 10:21:00,
2013-01-02 05:27:00,14.5,11.1,30.13,West,273,0.0,5.0,86,0.00,,,0.00,0,Wunderground v.1.15,2013-01-02 10:27:00,
2013-01-02 05:33:00,14.2,10.8,30.13,West,273,0.0,5.0,86,0.00,,,0.00,0,Wunderground v.1.15,2013-01-02 10:33:00,
2013-01-02 05:39:00,13.7,10.5,30.13,West,273,0.0,5.0,87,0.00,,,0.00,0,Wunderground v.1.15,2013-01-02 10:39:00,
2013-01-02 05:45:00,13.5,10.4,30.13,West,273,0.0,5.0,87,0.00,,,0.00,0,Wunderground v.1.15,2013-01-02 10:45:00,
2013-01-02 05:51:00,13.4,10.5,30.14,West,273,0.0,5.0,88,0.00,,,0.00,0,Wunderground v.1.15,2013-01-02 10:51:00,
2013-01-02 05:57:00,13.1,10.5,30.14,West,273,0.0,5.0,89,0.00,,,0.00,0,Wunderground v.1.15,2013-01-02 10:57:00,
2013-01-02 06:03:00,13.5,10.9,30.14,West,273,0.0,5.0,89,0.00,,,0.00,0,Wunderground v.1.15,2013-01-02 11:03:00,
2013-01-02 06:09:00,14.0,11.1,30.14,West,273,0.0,5.0,88,0.00,,,0.00,0,Wunderground v.1.15,2013-01-02 11:09:00,
2013-01-02 06:15:00,14.4,11.2,30.14,West,273,0.0,5.0,87,0.00,,,0.00,0,Wunderground v.1.15,2013-01-02 11:15:00,
2013-01-02 06:21:00,14.5,11.3,30.15,West,273,0.0,5.0,87,0.00,,,0.00,0,Wunderground v.1.15,2013-01-02 11:21:00,
2013-01-02 06:27:00,14.7,11.5,30.15,SSW,206,0.0,5.0,87,0.00,,,0.00,0,Wunderground v.1.15,2013-01-02 11:27:00,
2013-01-02 06:33:00,14.9,11.5,30.16,SSW,206,0.0,5.0,86,0.00,,,0.00,0,Wunderground v.1.15,2013-01-02 11:33:00,
2013-01-02 06:39:00,15.3,11.9,30.16,SSW,206,0.0,5.0,86,0.00,,,0.00,0,Wunderground v.1.15,2013-01-02 11:39:00,
2013-01-02 06:45:00,15.5,11.8,30.16,SSW,206,0.0,5.0,85,0.00,,,0.00,0,Wunderground v.1.15,2013-01-02 11:45:00,
2013-01-02 06:51:00,15.7,12.0,30.17,SSW,206,0.0,5.0,85,0.00,,,0.00,0,Wunderground v.1.15,2013-01-02 11:51:00,
2013-01-02 06:57:00,16.0,12.0,30.17,SSW,206,0.0,5.0,84,0.00,,,0.00,0,Wunderground v.1.15,2013-01-02 11:57:00,
2013-01-02 07:03:00,16.1,12.1,30.17,SSW,206,0.0,5.0,84,0.00,,,0.00,0,Wunderground v.1.15,2013-01-02 12:03:00,
2013-01-02 07:09:00,16.3,12.3,30.17,SSW,206,0.0,5.0,84,0.00,,,0.00,0,Wunderground v.1.15,2013-01-02 12:09:00,
2013-01-02 07:15:00,16.4,12.1,30.18,SSW,206,0.0,5.0,83,0.00,,,0.00,0,Wunderground v.1.15,2013-01-02 12:15:00,
2013-01-02 07:21:00,16.6,12.3,30.18,SSW,206,0.0,5.0,83,0.00,,,0.00,0,Wunderground v.1.15,2013-01-02 12:21:00,
2013-01-02 07:27:00,16.8,12.5,30.18,SSW,206,0.0,5.0,83,0.00,,,0.00,0,Wunderground v.1.15,2013-01-02 12:27:00,
2013-01-02 07:33:00,16.9,12.6,30.18,SSW,206,0.0,5.0,83,0.00,,,0.00,0,Wunderground v.1.15,2013-01-02 12:33:00,
2013-01-02 07:39:00,16.8,12.5,30.18,SSW,206,0.0,5.0,83,0.00,,,0.00,0,Wunderground v.1.15,2013-01-02 12:39:00,
2013-01-02 07:45:00,16.6,12.3,30.18,SSW,206,0.0,5.0,83,0.00,,,0.00,5,Wunderground v.1.15,2013-01-02 12:45:00,
2013-01-02 07:51:00,16.5,12.2,30.18,SSW,206,0.0,5.0,83,0.00,,,0.00,9,Wunderground v.1.15,2013-01-02 12:51:00,
2013-01-02 07:57:00,16.5,12.5,30.18,SSW,206,0.0,5.0,84,0.00,,,0.00,12,Wunderground v.1.15,2013-01-02 12:57:00,
2013-01-02 08:03:00,16.8,12.8,30.18,WNW,299,0.0,5.0,84,0.00,,,0.00,16,Wunderground v.1.15,2013-01-02 13:03:00,
2013-01-02 08:09:00,17.3,13.0,30.18,SSW,210,0.0,5.0,83,0.00,,,0.00,19,Wunderground v.1.15,2013-01-02 13:09:00,
2013-01-02 08:15:00,17.5,13.2,30.18,SW,233,0.0,5.0,83,0.00,,,0.00,23,Wunderground v.1.15,2013-01-02 13:15:00,
2013-01-02 08:21:00,18.0,13.4,30.18,SW,224,0.0,5.0,82,0.00,,,0.00,26,Wunderground v.1.15,2013-01-02 13:21:00,
2013-01-02 08:27:00,18.4,13.5,30.18,West,259,1.0,5.0,81,0.00,,,0.00,37,Wunderground v.1.15,2013-01-02 13:27:00,
2013-01-02 08:33:00,18.9,13.7,30.18,West,272,1.0,5.0,80,0.00,,,0.00,47,Wunderground v.1.15,2013-01-02 13:33:00,
2013-01-02 08:39:00,19.1,13.9,30.18,West,265,1.0,5.0,80,0.00,,,0.00,58,Wunderground v.1.15,2013-01-02 13:39:00,
2013-01-02 08:45:00,19.4,13.9,30.18,SSW,207,2.0,5.0,79,0.00,,,0.00,63,Wunderground v.1.15,2013-01-02 13:45:00,
2013-01-02 08:51:00,19.7,14.2,30.19,West,273,1.0,1.0,79,0.00,,,0.00,65,Wunderground v.1.15,2013-01-02 13:51:00,
2013-01-02 08:57:00,20.0,14.2,30.19,WNW,300,2.0,5.0,78,0.00,,,0.00,86,Wunderground v.1.15,2013-01-02 13:57:00,
2013-01-02 09:03:00,20.2,14.4,30.19,SSW,211,2.0,4.0,78,0.00,,,0.00,100,Wunderground v.1.15,2013-01-02 14:03:00,
2013-01-02 09:09:00,20.4,14.6,30.19,West,260,2.0,5.0,78,0.00,,,0.00,88,Wunderground v.1.15,2013-01-02 14:09:00,
2013-01-02 09:15:00,20.6,14.5,30.20,West,260,2.0,5.0,77,0.00,,,0.00,97,Wunderground v.1.15,2013-01-02 14:15:00,
2013-01-02 09:21:00,20.8,14.4,30.20,SW,235,2.0,5.0,76,0.00,,,0.00,104,Wunderground v.1.15,2013-01-02 14:21:00,
2013-01-02 09:27:00,21.0,14.6,30.20,West,261,2.0,5.0,76,0.00,,,0.00,116,Wunderground v.1.15,2013-01-02 14:27:00,
2013-01-02 09:33:00,21.2,14.8,30.20,WSW,244,3.0,5.0,76,0.00,,,0.00,118,Wunderground v.1.15,2013-01-02 14:33:00,
2013-01-02 09:39:00,21.5,14.8,30.19,SSW,213,3.0,5.0,75,0.00,,,0.00,118,Wunderground v.1.15,2013-01-02 14:39:00,
2013-01-02 09:45:00,21.5,14.8,30.19,West,259,2.0,5.0,75,0.00,,,0.00,109,Wunderground v.1.15,2013-01-02 14:45:00,
2013-01-02 09:51:00,21.7,15.0,30.19,NNW,344,1.0,5.0,75,0.00,,,0.00,132,Wunderground v.1.15,2013-01-02 14:51:00,
2013-01-02 09:57:00,22.0,15.3,30.20,WSW,244,2.0,5.0,75,0.00,,,0.00,130,Wunderground v.1.15,2013-01-02 14:57:00,
2013-01-02 10:03:00,22.1,15.4,30.20,SSW,202,2.0,6.0,75,0.00,,,0.00,163,Wunderground v.1.15,2013-01-02 15:03:00,
2013-01-02 10:09:00,22.2,15.2,30.20,SW,229,3.0,6.0,74,0.00,,,0.00,132,Wunderground v.1.15,2013-01-02 15:09:00,
2013-01-02 10:15:00,22.3,15.0,30.21,West,269,4.0,6.0,73,0.00,,,0.00,165,Wunderground v.1.15,2013-01-02 15:15:00,
2013-01-02 10:21:00,22.4,15.1,30.21,SSW,194,4.0,4.0,73,0.00,,,0.00,144,Wunderground v.1.15,2013-01-02 15:21:00,
2013-01-02 10:27:00,22.5,15.1,30.21,WSW,242,3.0,5.0,73,0.00,,,0.00,146,Wunderground v.1.15,2013-01-02 15:27:00,
2013-01-02 10:33:00,22.6,15.2,30.21,West,274,4.0,8.0,73,0.00,,,0.00,144,Wunderground v.1.15,2013-01-02 15:33:00,
2013-01-02 10:39:00,22.7,15.3,30.21,West,280,5.0,8.0,73,0.00,,,0.00,163,Wunderground v.1.15,2013-01-02 15:39:00,
2013-01-02 10:45:00,22.8,15.4,30.22,WNW,303,3.0,5.0,73,0.00,,,0.00,146,Wunderground v.1.15,2013-01-02 15:45:00,
2013-01-02 10:51:00,22.9,15.2,30.22,West,271,3.0,3.0,72,0.00,,,0.00,155,Wunderground v.1.15,2013-01-02 15:51:00,
2013-01-02 10:57:00,22.9,15.5,30.21,NNW,332,3.0,5.0,73,0.00,,,0.00,153,Wunderground v.1.15,2013-01-02 15:57:00,
2013-01-02 11:03:00,23.0,15.3,30.20,NW,307,3.0,5.0,72,0.00,,,0.00,153,Wunderground v.1.15,2013-01-02 16:03:00,
2013-01-02 11:09:00,23.0,15.6,30.21,WNW,288,3.0,5.0,73,0.00,,,0.00,149,Wunderground v.1.15,2013-01-02 16:09:00,
2013-01-02 11:15:00,22.9,15.5,30.21,SW,232,3.0,5.0,73,0.00,,,0.00,144,Wunderground v.1.15,2013-01-02 16:15:00,
2013-01-02 11:21:00,23.0,15.6,30.20,WNW,301,4.0,4.0,73,0.00,,,0.00,188,Wunderground v.1.15,2013-01-02 16:21:00,
2013-01-02 11:27:00,23.2,15.5,30.20,WSW,255,4.0,5.0,72,0.00,,,0.00,178,Wunderground v.1.15,2013-01-02 16:27:00,
2013-01-02 11:33:00,23.3,15.9,30.20,WSW,255,3.0,5.0,73,0.00,,,0.00,176,Wunderground v.1.15,2013-01-02 16:33:00,
2013-01-02 11:39:00,23.3,15.6,30.20,SW,226,4.0,8.0,72,0.00,,,0.00,188,Wunderground v.1.15,2013-01-02 16:39:00,
2013-01-02 11:45:00,23.3,15.9,30.20,WNW,301,4.0,6.0,73,0.00,,,0.00,207,Wunderground v.1.15,2013-01-02 16:45:00,
2013-01-02 11:51:00,23.5,15.8,30.20,West,276,3.0,8.0,72,0.00,,,0.00,176,Wunderground v.1.15,2013-01-02 16:51:00,
2013-01-02 11:57:00,23.5,15.8,30.20,West,268,4.0,8.0,72,0.00,,,0.00,190,Wunderground v.1.15,2013-01-02 16:57:00,
2013-01-02 12:03:00,23.5,15.8,30.20,SW,227,4.0,10.0,72,0.00,,,0.00,172,Wunderground v.1.15,2013-01-02 17:03:00,
2013-01-02 12:09:00,23.7,16.0,30.21,WSW,240,5.0,10.0,72,0.00,,,0.00,160,Wunderground v.1.15,2013-01-02 17:09:00,
2013-01-02 12:15:00,23.8,16.1,30.21,WSW,239,3.0,10.0,72,0.00,,,0.00,163,Wunderground v.1.15,2013-01-02 17:15:00,
2013-01-02 12:21:00,23.8,15.8,30.21,SSW,210,4.0,4.0,71,0.00,,,0.00,169,Wunderground v.1.15,2013-01-02 17:21:00,
2013-01-02 12:27:00,23.9,15.9,30.21,WSW,242,4.0,7.0,71,0.00,,,0.00,162,Wunderground v.1.15,2013-01-02 17:27:00,
2013-01-02 12:33:00,24.0,16.0,30.21,NNW,336,4.0,5.0,71,0.00,,,0.00,169,Wunderground v.1.15,2013-01-02 17:33:00,
2013-01-02 12:39:00,24.1,16.1,30.20,West,278,4.0,5.0,71,0.00,,,0.00,197,Wunderground v.1.15,2013-01-02 17:39:00,
2013-01-02 12:45:00,24.3,15.9,30.21,WSW,252,4.0,5.0,70,0.00,,,0.00,174,Wunderground v.1.15,2013-01-02 17:45:00,
2013-01-02 12:51:00,24.4,16.0,30.20,West,261,3.0,5.0,70,0.00,,,0.00,214,Wunderground v.1.15,2013-01-02 17:51:00,
2013-01-02 12:57:00,24.6,16.2,30.21,WNW,293,4.0,5.0,70,0.00,,,0.00,181,Wunderground v.1.15,2013-01-02 17:57:00,
2013-01-02 13:03:00,24.7,16.3,30.22,West,268,4.0,5.0,70,0.00,,,0.00,174,Wunderground v.1.15,2013-01-02 18:03:00,
2013-01-02 13:09:00,24.7,16.0,30.22,West,267,4.0,6.0,69,0.00,,,0.00,216,Wunderground v.1.15,2013-01-02 18:09:00,
2013-01-02 13:15:00,24.8,15.7,30.22,NW,313,5.0,5.0,68,0.00,,,0.00,202,Wunderground v.1.15,2013-01-02 18:15:00,
2013-01-02 13:21:00,24.8,15.7,30.22,WNW,292,5.0,5.0,68,0.00,,,0.00,265,Wunderground v.1.15,2013-01-02 18:21:00,
2013-01-02 13:27:00,24.9,15.8,30.22,WNW,288,5.0,8.0,68,0.00,,,0.00,221,Wunderground v.1.15,2013-01-02 18:27:00,
2013-01-02 13:33:00,25.1,16.0,30.22,West,275,5.0,7.0,68,0.00,,,0.00,200,Wunderground v.1.15,2013-01-02 18:33:00,
2013-01-02 13:39:00,25.2,15.8,30.22,NW,308,5.0,7.0,67,0.00,,,0.00,202,Wunderground v.1.15,2013-01-02 18:39:00,
2013-01-02 13:45:00,25.5,15.7,30.22,WNW,292,4.0,5.0,66,0.00,,,0.00,257,Wunderground v.1.15,2013-01-02 18:45:00,
2013-01-02 13:51:00,25.7,15.6,30.22,NNW,336,3.0,5.0,65,0.00,,,0.00,241,Wunderground v.1.15,2013-01-02 18:51:00,
2013-01-02 13:57:00,25.7,15.6,30.22,NNW,344,4.0,7.0,65,0.00,,,0.00,327,Wunderground v.1.15,2013-01-02 18:57:00,
2013-01-02 14:03:00,26.4,15.9,30.22,WNW,300,4.0,6.0,64,0.00,,,0.00,288,Wunderground v.1.15,2013-01-02 19:03:00,
2013-01-02 14:09:00,26.0,15.5,30.21,NW,311,6.0,11.0,64,0.00,,,0.00,241,Wunderground v.1.15,2013-01-02 19:09:00,
2013-01-02 14:15:00,25.8,15.6,30.21,West,276,6.0,10.0,65,0.00,,,0.00,190,Wunderground v.1.15,2013-01-02 19:15:00,
2013-01-02 14:21:00,26.2,15.7,30.21,WNW,302,4.0,4.0,64,0.00,,,0.00,381,Wunderground v.1.15,2013-01-02 19:21:00,
2013-01-02 14:27:00,26.8,15.5,30.21,WNW,296,5.0,10.0,62,0.00,,,0.00,425,Wunderground v.1.15,2013-01-02 19:27:00,
2013-01-02 14:33:00,26.8,15.1,30.21,NNW,336,6.0,6.0,61,0.00,,,0.00,355,Wunderground v.1.15,2013-01-02 19:33:00,
2013-01-02 14:39:00,26.7,15.0,30.21,NW,311,6.0,7.0,61,0.00,,,0.00,327,Wunderground v.1.15,2013-01-02 19:39:00,
2013-01-02 14:45:00,26.6,14.9,30.21,North,351,6.0,9.0,61,0.00,,,0.00,207,Wunderground v.1.15,2013-01-02 19:45:00,
2013-01-02 14:51:00,26.5,14.9,30.22,NW,325,6.0,6.0,61,0.00,,,0.00,202,Wunderground v.1.15,2013-01-02 19:51:00,
2013-01-02 14:57:00,26.3,14.7,30.22,WNW,300,6.0,6.0,61,0.00,,,0.00,169,Wunderground v.1.15,2013-01-02 19:57:00,
2013-01-02 15:03:00,26.5,15.2,30.22,NW,325,4.0,5.0,62,0.00,,,0.00,290,Wunderground v.1.15,2013-01-02 20:03:00,
2013-01-02 15:09:00,26.6,15.3,30.22,NW,315,4.0,8.0,62,0.00,,,0.00,192,Wunderground v.1.15,2013-01-02 20:09:00,
2013-01-02 15:15:00,26.4,14.8,30.21,West,281,4.0,6.0,61,0.00,,,0.00,176,Wunderground v.1.15,2013-01-02 20:15:00,
2013-01-02 15:21:00,26.2,14.6,30.22,NW,306,4.0,4.0,61,0.00,,,0.00,139,Wunderground v.1.15,2013-01-02 20:21:00,
2013-01-02 15:27:00,26.3,15.0,30.22,West,261,3.0,5.0,62,0.00,,,0.00,162,Wunderground v.1.15,2013-01-02 20:27:00,
2013-01-02 15:33:00,26.2,14.6,30.22,NNW,336,4.0,4.0,61,0.00,,,0.00,130,Wunderground v.1.15,2013-01-02 20:33:00,
2013-01-02 15:39:00,26.0,14.4,30.22,NNW,331,4.0,5.0,61,0.00,,,0.00,116,Wunderground v.1.15,2013-01-02 20:39:00,
2013-01-02 15:45:00,25.7,14.5,30.22,NW,309,4.0,8.0,62,0.00,,,0.00,100,Wunderground v.1.15,2013-01-02 20:45:00,
2013-01-02 15:51:00,25.5,14.6,30.23,WSW,244,3.0,5.0,63,0.00,,,0.00,90,Wunderground v.1.15,2013-01-02 20:51:00,
2013-01-02 15:57:00,25.3,14.5,30.23,NW,312,4.0,5.0,63,0.00,,,0.00,77,Wunderground v.1.15,2013-01-02 20:57:00,
2013-01-02 16:03:00,25.1,14.6,30.23,West,266,4.0,5.0,64,0.00,,,0.00,65,Wunderground v.1.15,2013-01-02 21:03:00,
2013-01-02 16:09:00,25.0,14.5,30.23,WNW,291,3.0,8.0,64,0.00,,,0.00,58,Wunderground v.1.15,2013-01-02 21:09:00,
2013-01-02 16:15:00,25.0,14.5,30.24,West,266,3.0,6.0,64,0.00,,,0.00,54,Wunderground v.1.15,2013-01-02 21:15:00,
2013-01-02 16:21:00,24.9,14.4,30.24,WNW,300,3.0,3.0,64,0.00,,,0.00,42,Wunderground v.1.15,2013-01-02 21:21:00,
2013-01-02 16:27:00,24.7,14.6,30.24,NNW,329,2.0,5.0,65,0.00,,,0.00,28,Wunderground v.1.15,2013-01-02 21:27:00,
2013-01-02 16:33:00,24.4,14.3,30.24,WNW,289,2.0,5.0,65,0.00,,,0.00,23,Wunderground v.1.15,2013-01-02 21:33:00,
2013-01-02 16:39:00,24.3,14.2,30.24,NW,321,3.0,7.0,65,0.00,,,0.00,21,Wunderground v.1.15,2013-01-02 21:39:00,
2013-01-02 16:45:00,24.0,14.3,30.24,WSW,257,3.0,5.0,66,0.00,,,0.00,12,Wunderground v.1.15,2013-01-02 21:45:00,
2013-01-02 16:51:00,23.7,14.3,30.24,NW,320,2.0,2.0,67,0.00,,,0.00,7,Wunderground v.1.15,2013-01-02 21:51:00,
2013-01-02 16:57:00,23.4,14.4,30.24,NW,326,1.0,5.0,68,0.00,,,0.00,0,Wunderground v.1.15,2013-01-02 21:57:00,
2013-01-02 17:03:00,23.0,14.0,30.25,NNW,331,0.0,5.0,68,0.00,,,0.00,0,Wunderground v.1.15,2013-01-02 22:03:00,
2013-01-02 17:09:00,22.9,14.2,30.25,NW,320,1.0,5.0,69,0.00,,,0.00,0,Wunderground v.1.15,2013-01-02 22:09:00,
2013-01-02 17:15:00,22.8,14.5,30.25,NW,316,0.0,5.0,70,0.00,,,0.00,0,Wunderground v.1.15,2013-01-02 22:15:00,
2013-01-02 17:21:00,22.5,14.2,30.25,NNW,340,0.0,5.0,70,0.00,,,0.00,0,Wunderground v.1.15,2013-01-02 22:21:00,
2013-01-02 17:27:00,22.2,14.2,30.25,NW,306,1.0,5.0,71,0.00,,,0.00,0,Wunderground v.1.15,2013-01-02 22:27:00,
2013-01-02 17:33:00,22.2,14.2,30.25,NW,308,1.0,5.0,71,0.00,,,0.00,0,Wunderground v.1.15,2013-01-02 22:33:00,
2013-01-02 17:39:00,22.1,14.4,30.25,WNW,299,0.0,5.0,72,0.00,,,0.00,0,Wunderground v.1.15,2013-01-02 22:39:00,
2013-01-02 17:45:00,21.8,14.2,30.25,West,277,1.0,5.0,72,0.00,,,0.00,0,Wunderground v.1.15,2013-01-02 22:45:00,
2013-01-02 17:51:00,21.8,14.2,30.25,NNW,340,1.0,1.0,72,0.00,,,0.00,0,Wunderground v.1.15,2013-01-02 22:51:00,
2013-01-02 17:57:00,21.3,14.0,30.25,NNW,340,0.0,5.0,73,0.00,,,0.00,0,Wunderground v.1.15,2013-01-02 22:57:00,
2013-01-02 18:03:00,20.9,14.2,30.25,NW,313,0.0,5.0,75,0.00,,,0.00,0,Wunderground v.1.15,2013-01-02 23:03:00,
2013-01-02 18:09:00,20.6,13.9,30.25,NW,313,0.0,5.0,75,0.00,,,0.00,0,Wunderground v.1.15,2013-01-02 23:09:00,
2013-01-02 18:15:00,20.1,14.0,30.26,NW,313,0.0,5.0,77,0.00,,,0.00,0,Wunderground v.1.15,2013-01-02 23:15:00,
2013-01-02 18:21:00,19.8,14.0,30.26,NW,313,0.0,5.0,78,0.00,,,0.00,0,Wunderground v.1.15,2013-01-02 23:21:00,
2013-01-02 18:27:00,19.6,13.9,30.26,NW,313,0.0,5.0,78,0.00,,,0.00,0,Wunderground v.1.15,2013-01-02 23:27:00,
2013-01-02 18:33:00,19.4,13.9,30.26,NW,313,0.0,5.0,79,0.00,,,0.00,0,Wunderground v.1.15,2013-01-02 23:33:00,
2013-01-02 18:39:00,19.3,13.9,30.26,NW,313,0.0,5.0,79,0.00,,,0.00,0,Wunderground v.1.15,2013-01-02 23:39:00,
2013-01-02 18:45:00,18.9,13.7,30.26,NW,313,0.0,5.0,80,0.00,,,0.00,0,Wunderground v.1.15,2013-01-02 23:45:00,
2013-01-02 18:51:00,18.8,13.4,30.26,NW,313,0.0,5.0,79,0.00,,,0.00,0,Wunderground v.1.15,2013-01-02 23:51:00,
2013-01-02 18:57:00,18.6,13.5,30.27,NW,313,0.0,5.0,80,0.00,,,0.00,0,Wunderground v.1.15,2013-01-02 23:57:00,
2013-01-02 19:03:00,18.3,13.4,30.27,NW,313,0.0,5.0,81,0.00,,,0.00,0,Wunderground v.1.15,2013-01-03 00:03:00,
2013-01-02 19:09:00,17.8,13.0,30.27,NW,313,0.0,5.0,81,0.00,,,0.00,0,Wunderground v.1.15,2013-01-03 00:09:00,
2013-01-02 19:15:00,17.5,12.9,30.26,NW,313,0.0,5.0,82,0.00,,,0.00,0,Wunderground v.1.15,2013-01-03 00:15:00,
2013-01-02 19:21:00,17.4,12.8,30.26,NW,313,0.0,5.0,82,0.00,,,0.00,0,Wunderground v.1.15,2013-01-03 00:21:00,
2013-01-02 19:27:00,17.3,12.7,30.27,NW,313,0.0,5.0,82,0.00,,,0.00,0,Wunderground v.1.15,2013-01-03 00:27:00,
2013-01-02 19:34:00,17.2,12.9,30.27,NW,313,0.0,5.0,83,0.00,,,0.00,0,Wunderground v.1.15,2013-01-03 00:34:00,
2013-01-02 19:40:00,17.0,12.7,30.27,NW,313,0.0,5.0,83,0.00,,,0.00,0,Wunderground v.1.15,2013-01-03 00:40:00,
2013-01-02 19:46:00,16.7,12.4,30.27,NW,313,0.0,5.0,83,0.00,,,0.00,0,Wunderground v.1.15,2013-01-03 00:46:00,
2013-01-02 19:52:00,16.5,12.5,30.27,NW,313,0.0,5.0,84,0.00,,,0.00,0,Wunderground v.1.15,2013-01-03 00:52:00,
2013-01-02 19:58:00,16.3,12.6,30.28,NW,313,0.0,5.0,85,0.00,,,0.00,0,Wunderground v.1.15,2013-01-03 00:58:00,
2013-01-02 20:04:00,16.2,12.5,30.28,NW,313,0.0,5.0,85,0.00,,,0.00,0,Wunderground v.1.15,2013-01-03 01:04:00,
2013-01-02 20:10:00,15.9,12.2,30.28,NW,313,0.0,5.0,85,0.00,,,0.00,0,Wunderground v.1.15,2013-01-03 01:10:00,
2013-01-02 20:16:00,15.8,12.1,30.28,NW,313,0.0,5.0,85,0.00,,,0.00,0,Wunderground v.1.15,2013-01-03 01:16:00,
2013-01-02 20:22:00,15.5,11.8,30.28,NW,313,0.0,5.0,85,0.00,,,0.00,0,Wunderground v.1.15,2013-01-03 01:22:00,
2013-01-02 20:28:00,15.0,11.3,30.28,NW,313,0.0,5.0,85,0.00,,,0.00,0,Wunderground v.1.15,2013-01-03 01:28:00,
2013-01-02 20:34:00,14.5,10.8,30.28,NW,313,0.0,5.0,85,0.00,,,0.00,0,Wunderground v.1.15,2013-01-03 01:34:00,
2013-01-02 20:40:00,14.1,10.7,30.28,NW,313,0.0,5.0,86,0.00,,,0.00,0,Wunderground v.1.15,2013-01-03 01:40:00,
2013-01-02 20:46:00,13.8,10.4,30.28,NW,313,0.0,5.0,86,0.00,,,0.00,0,Wunderground v.1.15,2013-01-03 01:46:00,
2013-01-02 20:52:00,13.4,10.0,30.28,NW,313,0.0,5.0,86,0.00,,,0.00,0,Wunderground v.1.15,2013-01-03 01:52:00,
2013-01-02 20:58:00,13.2,10.1,30.29,NW,313,0.0,5.0,87,0.00,,,0.00,0,Wunderground v.1.15,2013-01-03 01:58:00,
2013-01-02 21:04:00,13.4,10.3,30.28,NW,313,0.0,5.0,87,0.00,,,0.00,0,Wunderground v.1.15,2013-01-03 02:04:00,
2013-01-02 21:10:00,13.1,10.0,30.29,NW,313,0.0,5.0,87,0.00,,,0.00,0,Wunderground v.1.15,2013-01-03 02:10:00,
2013-01-02 21:16:00,12.6,9.5,30.29,NW,313,0.0,5.0,87,0.00,,,0.00,0,Wunderground v.1.15,2013-01-03 02:16:00,
2013-01-02 21:22:00,12.6,9.7,30.29,NW,313,0.0,5.0,88,0.00,,,0.00,0,Wunderground v.1.15,2013-01-03 02:22:00,
2013-01-02 21:28:00,12.6,9.7,30.29,NW,313,0.0,5.0,88,0.00,,,0.00,0,Wunderground v.1.15,2013-01-03 02:28:00,
2013-01-02 21:34:00,12.6,10.0,30.30,NW,313,0.0,5.0,89,0.00,,,0.00,0,Wunderground v.1.15,2013-01-03 02:34:00,
2013-01-02 21:40:00,12.9,10.3,30.30,NW,315,0.0,5.0,89,0.00,,,0.00,0,Wunderground v.1.15,2013-01-03 02:40:00,
2013-01-02 21:46:00,12.9,10.3,30.30,NW,315,0.0,5.0,89,0.00,,,0.00,0,Wunderground v.1.15,2013-01-03 02:46:00,
2013-01-02 21:52:00,12.8,10.2,30.30,NW,315,0.0,5.0,89,0.00,,,0.00,0,Wunderground v.1.15,2013-01-03 02:52:00,
2013-01-02 21:58:00,12.6,10.0,30.30,NW,315,0.0,5.0,89,0.00,,,0.00,0,Wunderground v.1.15,2013-01-03 02:58:00,
2013-01-02 22:04:00,12.4,9.8,30.30,NW,315,0.0,5.0,89,0.00,,,0.00,0,Wunderground v.1.15,2013-01-03 03:04:00,
2013-01-02 22:10:00,12.5,10.1,30.30,NW,315,0.0,5.0,90,0.00,,,0.00,0,Wunderground v.1.15,2013-01-03 03:10:00,
2013-01-02 22:16:00,12.2,9.6,30.30,NW,315,0.0,5.0,89,0.00,,,0.00,0,Wunderground v.1.15,2013-01-03 03:16:00,
2013-01-02 22:22:00,12.0,9.4,30.30,NW,315,0.0,5.0,89,0.00,,,0.00,0,Wunderground v.1.15,2013-01-03 03:22:00,
2013-01-02 22:28:00,12.0,9.4,30.30,NW,315,0.0,5.0,89,0.00,,,0.00,0,Wunderground v.1.15,2013-01-03 03:28:00,
2013-01-02 22:34:00,12.1,9.7,30.31,NW,315,0.0,5.0,90,0.00,,,0.00,0,Wunderground v.1.15,2013-01-03 03:34:00,
2013-01-02 22:42:00,11.8,9.4,30.32,NW,315,0.0,5.0,90,0.00,,,0.00,0,Wunderground v.1.15,2013-01-03 03:42:00,
2013-01-02 22:48:00,11.9,9.8,30.32,NW,315,0.0,5.0,91,0.00,,,0.00,0,Wunderground v.1.15,2013-01-03 03:48:00,
2013-01-02 22:54:00,11.7,9.3,30.32,NW,315,0.0,5.0,90,0.00,,,0.00,0,Wunderground v.1.15,2013-01-03 03:54:00,
2013-01-02 23:00:00,11.7,9.3,30.32,NW,315,0.0,5.0,90,0.00,,,0.00,0,Wunderground v.1.15,2013-01-03 04:00:00,
2013-01-02 23:06:00,11.5,9.1,30.32,NW,315,0.0,5.0,90,0.00,,,0.00,0,Wunderground v.1.15,2013-01-03 04:06:00,
2013-01-02 23:12:00,11.0,8.6,30.33,NW,315,0.0,5.0,90,0.00,,,0.00,0,Wunderground v.1.15,2013-01-03 04:12:00,
2013-01-02 23:18:00,10.9,8.8,30.33,NW,315,0.0,5.0,91,0.00,,,0.00,0,Wunderground v.1.15,2013-01-03 04:18:00,
2013-01-02 23:24:00,10.7,8.6,30.32,NW,315,0.0,5.0,91,0.00,,,0.00,0,Wunderground v.1.15,2013-01-03 04:24:00,
2013-01-02 23:30:00,10.8,8.7,30.32,NW,315,0.0,5.0,91,0.00,,,0.00,0,Wunderground v.1.15,2013-01-03 04:30:00,
2013-01-02 23:36:00,10.5,8.4,30.32,NW,315,0.0,5.0,91,0.00,,,0.00,0,Wunderground v.1.15,2013-01-03 04:36:00,
2013-01-02 23:42:00,10.6,8.5,30.31,NW,315,0.0,5.0,91,0.00,,,0.00,0,Wunderground v.1.15,2013-01-03 04:42:00,
2013-01-02 23:48:00,10.5,8.4,30.31,NW,315,0.0,5.0,91,0.00,,,0.00,0,Wunderground v.1.15,2013-01-03 04:48:00,
2013-01-02 23:54:00,10.5,8.4,30.31,NW,315,0.0,5.0,91,0.00,,,0.00,0,Wunderground v.1.15,2013-01-03 04:54:00,